createdAt,value
2022-10-02T00:00:34.200Z,101549.28
2022-10-02T00:03:12.095Z,101557.22
2022-10-02T00:05:48.618Z,101554.47
2022-10-02T00:08:25.715Z,101566.22
2022-10-02T00:11:01.437Z,101560.91
2022-10-02T00:13:34.769Z,101560.50
2022-10-02T00:16:05.473Z,101567.75
2022-10-02T00:18:37.063Z,101570.41
2022-10-02T00:21:15.660Z,101581.88
2022-10-02T00:23:49.029Z,101598.91
2022-10-02T00:26:22.299Z,101588.09
2022-10-02T00:29:08.104Z,101595.03
2022-10-02T00:31:41.512Z,101587.34
2022-10-02T00:34:21.944Z,101589.31
2022-10-02T00:37:26.864Z,101590.84
2022-10-02T00:39:53.874Z,101590.53
2022-10-02T00:42:33.781Z,101594.00
2022-10-02T00:45:52.776Z,101593.34
2022-10-02T00:48:28.679Z,101595.03
2022-10-02T00:51:05.542Z,101596.25
2022-10-02T00:53:58.546Z,101590.00
2022-10-02T00:56:44.331Z,101588.19
2022-10-02T00:59:29.135Z,101590.25
2022-10-02T01:02:02.663Z,101589.22
2022-10-02T01:04:38.957Z,101580.66
2022-10-02T01:07:10.083Z,101586.03
2022-10-02T01:09:39.051Z,101584.09
2022-10-02T01:12:07.121Z,101578.59
2022-10-02T01:14:39.486Z,101586.88
2022-10-02T01:17:21.061Z,101592.19
2022-10-02T01:19:48.814Z,101611.09
2022-10-02T01:22:21.125Z,101610.06
2022-10-02T01:24:52.042Z,101619.66
2022-10-02T01:27:19.733Z,101621.91
2022-10-02T01:29:52.116Z,101626.84
2022-10-02T01:32:20.170Z,101633.88
2022-10-02T01:34:47.722Z,101631.69
2022-10-02T01:37:14.890Z,101631.69
2022-10-02T01:39:42.070Z,101632.63
2022-10-02T01:42:09.382Z,101636.38
2022-10-02T01:44:36.707Z,101635.22
2022-10-02T01:47:09.551Z,101644.81
2022-10-02T01:49:55.614Z,101649.41
2022-10-02T01:52:47.115Z,101657.38
2022-10-02T01:55:22.067Z,101644.28
2022-10-02T01:58:10.873Z,101642.69
2022-10-02T02:01:08.143Z,101634.81
2022-10-02T02:03:42.301Z,101635.53
2022-10-02T02:06:24.093Z,101636.25
2022-10-02T02:09:15.305Z,101641.47
2022-10-02T02:11:54.839Z,101640.75
2022-10-02T02:14:35.888Z,101635.84
2022-10-02T02:17:12.196Z,101632.47
2022-10-02T02:19:52.614Z,101641.44
2022-10-02T02:22:35.411Z,101639.97
2022-10-02T02:25:07.887Z,101644.31
2022-10-02T02:27:41.102Z,101654.22
2022-10-02T02:30:12.042Z,101650.69
2022-10-02T02:32:46.471Z,101641.03
2022-10-02T02:35:20.649Z,101645.00
2022-10-02T02:37:52.504Z,101644.06
2022-10-02T02:40:25.441Z,101650.44
2022-10-02T02:43:10.075Z,101637.00
2022-10-02T02:45:42.530Z,101639.78
2022-10-02T02:48:17.737Z,101639.00
2022-10-02T02:50:50.614Z,101639.06
2022-10-02T02:53:22.516Z,101638.94
2022-10-02T02:55:58.183Z,101640.03
2022-10-02T02:58:50.612Z,101646.16
2022-10-02T03:01:17.904Z,101649.38
2022-10-02T03:03:45.328Z,101652.00
2022-10-02T03:06:21.715Z,101648.66
2022-10-02T03:08:51.623Z,101662.84
2022-10-02T03:11:56.019Z,101651.94
2022-10-02T03:15:16.956Z,101651.91
2022-10-02T03:17:56.181Z,101655.91
2022-10-02T03:20:39.998Z,101662.28
2022-10-02T03:23:33.154Z,101670.13
2022-10-02T03:26:02.736Z,101668.38
2022-10-02T03:28:55.899Z,101679.75
2022-10-02T03:31:27.493Z,101678.31
2022-10-02T03:33:57.491Z,101679.25
2022-10-02T03:36:25.328Z,101681.16
2022-10-02T03:39:19.912Z,101677.66
2022-10-02T03:41:43.484Z,101686.81
2022-10-02T03:44:10.547Z,101689.47
2022-10-02T03:46:37.957Z,101685.16
2022-10-02T03:49:05.258Z,101680.16
2022-10-02T03:51:32.501Z,101674.03
2022-10-02T03:53:59.629Z,101684.00
2022-10-02T03:56:36.026Z,101680.97
2022-10-02T03:59:10.594Z,101680.97
2022-10-02T04:01:46.889Z,101680.88
2022-10-02T04:04:29.634Z,101686.94
2022-10-02T04:07:03.415Z,101684.16
2022-10-02T04:09:46.550Z,101689.25
2022-10-02T04:12:28.147Z,101691.75
2022-10-02T04:15:01.210Z,101697.22
2022-10-02T04:17:44.105Z,101695.97
2022-10-02T04:20:35.226Z,101702.25
2022-10-02T04:23:12.086Z,101717.09
2022-10-02T04:25:45.743Z,101711.84
2022-10-02T04:28:19.907Z,101717.94
2022-10-02T04:30:47.008Z,101718.75
2022-10-02T04:33:18.275Z,101719.44
2022-10-02T04:35:56.335Z,101720.41
2022-10-02T04:38:26.078Z,101730.38
2022-10-02T04:41:18.021Z,101735.28
2022-10-02T04:43:55.701Z,101733.56
2022-10-02T04:46:58.912Z,101739.84
2022-10-02T04:49:25.959Z,101734.66
2022-10-02T04:52:24.102Z,101740.63
2022-10-02T04:55:07.173Z,101731.94
2022-10-02T04:57:57.991Z,101737.31
2022-10-02T05:00:27.926Z,101738.19
2022-10-02T05:03:17.371Z,101737.19
2022-10-02T05:06:19.930Z,101735.56
2022-10-02T05:09:03.619Z,101737.31
2022-10-02T05:11:33.319Z,101739.88
2022-10-02T05:14:15.588Z,101748.63
2022-10-02T05:16:48.353Z,101742.53
2022-10-02T05:19:21.546Z,101747.06
2022-10-02T05:21:58.335Z,101747.19
2022-10-02T05:24:34.939Z,101746.34
2022-10-02T05:27:25.954Z,101745.25
2022-10-02T05:30:19.422Z,101756.31
2022-10-02T05:32:58.147Z,101759.53
2022-10-02T05:35:33.959Z,101765.63
2022-10-02T05:38:33.573Z,101745.56
2022-10-02T05:41:11.755Z,101748.34
2022-10-02T05:43:55.435Z,101747.28
2022-10-02T05:46:28.888Z,101752.38
2022-10-02T05:49:06.595Z,101747.72
2022-10-02T05:51:55.482Z,101748.97
2022-10-02T05:54:55.409Z,101753.84
2022-10-02T05:57:48.650Z,101757.06
2022-10-02T06:00:28.872Z,101756.84
2022-10-02T06:03:03.579Z,101751.25
2022-10-02T06:05:38.679Z,101758.84
2022-10-02T06:08:09.957Z,101767.44
2022-10-02T06:11:07.959Z,101765.66
2022-10-02T06:13:46.143Z,101771.78
2022-10-02T06:16:38.154Z,101771.00
2022-10-02T06:19:31.973Z,101782.44
2022-10-02T06:22:08.622Z,101789.84
2022-10-02T06:25:04.490Z,101801.28
2022-10-02T06:27:54.580Z,101799.66
2022-10-02T06:30:22.120Z,101810.66
2022-10-02T06:32:58.183Z,101801.06
2022-10-02T06:36:06.894Z,101799.56
2022-10-02T06:39:04.737Z,101797.34
2022-10-02T06:42:17.969Z,101791.56
2022-10-02T06:45:03.898Z,101799.78
2022-10-02T06:47:57.314Z,101809.91
2022-10-02T06:50:53.751Z,101808.47
2022-10-02T06:53:26.767Z,101813.69
2022-10-02T06:56:00.235Z,101818.22
2022-10-02T06:59:34.899Z,101814.38
2022-10-02T07:02:19.260Z,101813.41
2022-10-02T07:05:01.431Z,101800.63
2022-10-02T07:07:45.798Z,101809.69
2022-10-02T07:10:33.878Z,101809.31
2022-10-02T07:13:15.838Z,101815.09
2022-10-02T07:15:57.452Z,101813.47
2022-10-02T07:18:50.549Z,101804.47
2022-10-02T07:21:23.077Z,101798.06
2022-10-02T07:24:11.963Z,101791.00
2022-10-02T07:27:03.658Z,101790.41
2022-10-02T07:29:39.850Z,101803.25
2022-10-02T07:32:16.084Z,101798.59
2022-10-02T07:34:52.310Z,101791.72
2022-10-02T07:37:36.655Z,101806.38
2022-10-02T07:40:32.224Z,101808.75
2022-10-02T07:43:28.807Z,101794.22
2022-10-02T07:46:09.861Z,101788.25
2022-10-02T07:48:58.630Z,101798.50
2022-10-02T07:51:50.058Z,101799.88
2022-10-02T07:54:17.175Z,101810.94
2022-10-02T07:56:47.054Z,101811.44
2022-10-02T07:59:17.392Z,101810.81
2022-10-02T08:01:47.497Z,101812.84
2022-10-02T08:04:18.821Z,101806.09
2022-10-02T08:06:47.992Z,101812.34
2022-10-02T08:09:25.438Z,101809.69
2022-10-02T08:12:03.701Z,101793.88
2022-10-02T08:14:40.392Z,101800.13
2022-10-02T08:17:28.058Z,101810.59
2022-10-02T08:20:02.160Z,101810.41
2022-10-02T08:22:45.546Z,101802.50
2022-10-02T08:25:12.592Z,101814.94
2022-10-02T08:27:55.473Z,101809.88
2022-10-02T08:30:22.628Z,101797.34
2022-10-02T08:32:49.798Z,101788.31
2022-10-02T08:35:19.766Z,101794.78
2022-10-02T08:38:10.018Z,101800.22
2022-10-02T08:40:55.066Z,101789.19
2022-10-02T08:43:45.009Z,101787.75
2022-10-02T08:46:31.577Z,101776.72
2022-10-02T08:49:32.102Z,101776.75
2022-10-02T08:52:14.052Z,101785.13
2022-10-02T08:54:50.843Z,101780.53
2022-10-02T08:57:53.686Z,101782.06
2022-10-02T09:00:48.037Z,101772.22
2022-10-02T09:03:27.563Z,101768.50
2022-10-02T09:06:06.798Z,101789.13
2022-10-02T09:08:49.085Z,101787.94
2022-10-02T09:11:37.125Z,101782.78
2022-10-02T09:14:48.486Z,101786.59
2022-10-02T09:17:47.284Z,101767.31
2022-10-02T09:20:42.261Z,101758.50
2022-10-02T09:23:30.978Z,101755.75
2022-10-02T09:26:12.761Z,101768.88
2022-10-02T09:29:13.221Z,101762.69
2022-10-02T09:32:12.909Z,101763.88
2022-10-02T09:35:06.789Z,101772.25
2022-10-02T09:37:44.174Z,101769.34
2022-10-02T09:40:33.224Z,101756.47
2022-10-02T09:43:36.094Z,101757.81
2022-10-02T09:46:26.819Z,101762.09
2022-10-02T09:49:20.042Z,101750.94
2022-10-02T09:51:49.842Z,101740.06
2022-10-02T09:54:38.902Z,101733.81
2022-10-02T09:57:40.790Z,101735.41
2022-10-02T10:00:32.550Z,101731.28
2022-10-02T10:03:17.801Z,101730.97
2022-10-02T10:06:05.851Z,101731.78
2022-10-02T10:08:44.897Z,101723.44
2022-10-02T10:11:40.435Z,101710.94
2022-10-02T10:14:45.272Z,101708.78
2022-10-02T10:17:15.261Z,101707.00
2022-10-02T10:20:03.911Z,101690.41
2022-10-02T10:23:02.164Z,101684.72
2022-10-02T10:26:02.287Z,101681.72
2022-10-02T10:28:33.802Z,101690.00
2022-10-02T10:31:48.347Z,101681.34
2022-10-02T10:34:36.694Z,101685.41
2022-10-02T10:37:26.885Z,101690.50
2022-10-02T10:40:02.931Z,101680.72
2022-10-02T10:43:07.566Z,101694.00
2022-10-02T10:45:54.071Z,101701.56
2022-10-02T10:49:00.549Z,101688.50
2022-10-02T10:51:49.988Z,101685.13
2022-10-02T10:54:54.322Z,101684.34
2022-10-02T10:57:25.846Z,101685.53
2022-10-02T11:00:21.614Z,101672.72
2022-10-02T11:03:04.501Z,101665.59
2022-10-02T11:05:50.304Z,101664.09
2022-10-02T11:08:32.730Z,101669.16
2022-10-02T11:11:18.654Z,101664.28
2022-10-02T11:14:05.582Z,101653.91
2022-10-02T11:16:58.549Z,101661.00
2022-10-02T11:19:55.995Z,101653.94
2022-10-02T11:22:35.265Z,101655.78
2022-10-02T11:25:14.550Z,101664.09
2022-10-02T11:27:57.388Z,101660.19
2022-10-02T11:30:49.260Z,101654.69
2022-10-02T11:33:19.542Z,101643.28
2022-10-02T11:36:04.538Z,101648.78
2022-10-02T11:38:54.323Z,101641.66
2022-10-02T11:41:34.994Z,101635.44
2022-10-02T11:44:18.589Z,101637.38
2022-10-02T11:46:52.202Z,101627.41
2022-10-02T11:49:20.184Z,101622.06
2022-10-02T11:52:15.004Z,101622.97
2022-10-02T11:54:54.503Z,101626.59
2022-10-02T11:57:30.277Z,101619.50
2022-10-02T12:00:35.914Z,101609.44
2022-10-02T12:03:24.701Z,101604.25
2022-10-02T12:06:24.075Z,101611.97
2022-10-02T12:09:03.213Z,101617.59
2022-10-02T12:12:12.055Z,101617.75
2022-10-02T12:15:02.298Z,101604.72
2022-10-02T12:17:53.067Z,101596.16
2022-10-02T12:21:01.342Z,101592.94
2022-10-02T12:24:14.538Z,101591.44
2022-10-02T12:27:11.014Z,101583.63
2022-10-02T12:29:56.382Z,101590.56
2022-10-02T12:32:55.966Z,101589.88
2022-10-02T12:35:26.192Z,101586.53
2022-10-02T12:38:28.835Z,101584.13
2022-10-02T12:41:21.265Z,101578.38
2022-10-02T12:44:17.014Z,101572.63
2022-10-02T12:46:57.421Z,101573.97
2022-10-02T12:49:45.613Z,101565.88
2022-10-02T12:52:50.103Z,101558.06
2022-10-02T12:55:47.670Z,101555.09
2022-10-02T12:58:32.809Z,101554.59
2022-10-02T13:01:05.660Z,101553.38
2022-10-02T13:03:58.618Z,101552.81
2022-10-02T13:06:48.832Z,101553.34
2022-10-02T13:09:30.195Z,101544.50
2022-10-02T13:12:28.142Z,101538.66
2022-10-02T13:15:40.611Z,101532.28
2022-10-02T13:18:43.392Z,101533.25
2022-10-02T13:21:18.282Z,101517.69
2022-10-02T13:23:54.271Z,101517.41
2022-10-02T13:26:45.006Z,101514.09
2022-10-02T13:29:36.958Z,101511.91
2022-10-02T13:32:25.638Z,101505.63
2022-10-02T13:35:20.041Z,101490.38
2022-10-02T13:37:57.498Z,101489.13
2022-10-02T13:40:33.517Z,101489.16
2022-10-02T13:43:19.023Z,101482.09
2022-10-02T13:45:58.158Z,101478.34
2022-10-02T13:48:29.762Z,101470.22
2022-10-02T13:50:56.820Z,101468.47
2022-10-02T13:53:39.571Z,101468.44
2022-10-02T13:56:48.699Z,101467.34
2022-10-02T13:59:15.859Z,101458.47
2022-10-02T14:02:10.454Z,101456.91
2022-10-02T14:04:49.738Z,101450.44
2022-10-02T14:07:48.885Z,101446.41
2022-10-02T14:10:44.837Z,101442.00
2022-10-02T14:13:42.256Z,101436.38
2022-10-02T14:16:39.745Z,101430.84
2022-10-02T14:19:06.807Z,101440.72
2022-10-02T14:21:38.539Z,101429.47
2022-10-02T14:24:49.943Z,101427.78
2022-10-02T14:27:48.170Z,101427.44
2022-10-02T14:30:24.054Z,101419.03
2022-10-02T14:33:02.530Z,101409.94
2022-10-02T14:35:54.456Z,101404.47
2022-10-02T14:38:43.094Z,101402.94
2022-10-02T14:41:31.454Z,101391.56
2022-10-02T14:44:39.403Z,101388.66
2022-10-02T14:47:21.104Z,101392.59
2022-10-02T14:50:12.870Z,101383.22
2022-10-02T14:52:50.400Z,101379.03
2022-10-02T14:55:23.366Z,101375.06
2022-10-02T14:58:14.038Z,101371.44
2022-10-02T15:01:29.692Z,101365.22
2022-10-02T15:04:13.524Z,101362.63
2022-10-02T15:07:04.984Z,101365.13
2022-10-02T15:09:59.726Z,101360.41
2022-10-02T15:13:06.933Z,101350.66
2022-10-02T15:16:11.873Z,101348.88
2022-10-02T15:18:58.065Z,101333.91
2022-10-02T15:21:32.283Z,101332.31
2022-10-02T15:24:25.939Z,101332.19
2022-10-02T15:27:24.626Z,101332.34
2022-10-02T15:30:15.246Z,101331.53
2022-10-02T15:32:45.095Z,101325.28
2022-10-02T15:35:33.335Z,101318.91
2022-10-02T15:38:03.129Z,101322.13
2022-10-02T15:40:35.068Z,101327.34
2022-10-02T15:43:12.073Z,101315.34
2022-10-02T15:45:54.343Z,101315.50
2022-10-02T15:48:52.392Z,101322.94
2022-10-02T15:51:43.971Z,101320.00
2022-10-02T15:54:45.995Z,101320.13
2022-10-02T15:57:34.266Z,101326.13
2022-10-02T16:00:21.611Z,101323.34
2022-10-02T16:03:10.277Z,101323.25
2022-10-02T16:05:50.305Z,101328.91
2022-10-02T16:08:36.415Z,101328.53
2022-10-02T16:11:37.847Z,101326.63
2022-10-02T16:14:13.898Z,101326.00
2022-10-02T16:16:41.638Z,101325.81
2022-10-02T16:19:39.895Z,101340.69
2022-10-02T16:22:40.695Z,101344.31
2022-10-02T16:25:51.353Z,101346.38
2022-10-02T16:28:36.455Z,101342.75
2022-10-02T16:31:19.047Z,101347.38
2022-10-02T16:33:55.239Z,101330.59
2022-10-02T16:36:31.946Z,101328.78
2022-10-02T16:39:33.729Z,101319.94
2022-10-02T16:42:02.137Z,101322.59
2022-10-02T16:45:11.015Z,101318.22
2022-10-02T16:47:50.689Z,101319.44
2022-10-02T16:50:25.911Z,101313.22
2022-10-02T16:53:11.460Z,101322.03
2022-10-02T16:55:45.094Z,101318.56
2022-10-02T16:58:28.586Z,101317.19
2022-10-02T17:01:02.508Z,101317.66
2022-10-02T17:04:05.961Z,101320.06
2022-10-02T17:06:39.872Z,101315.69
2022-10-02T17:09:07.150Z,101309.91
2022-10-02T17:11:52.055Z,101315.84
2022-10-02T17:14:46.922Z,101316.53
2022-10-02T17:17:20.095Z,101319.38
2022-10-02T17:20:02.392Z,101320.06
2022-10-02T17:22:43.034Z,101315.97
2022-10-02T17:25:17.294Z,101307.94
2022-10-02T17:27:58.790Z,101310.88
2022-10-02T17:30:28.867Z,101322.59
2022-10-02T17:33:13.985Z,101326.34
2022-10-02T17:35:54.632Z,101328.19
2022-10-02T17:38:24.147Z,101325.06
2022-10-02T17:41:16.667Z,101322.47
2022-10-02T17:43:50.613Z,101327.56
2022-10-02T17:46:35.818Z,101319.22
2022-10-02T17:49:20.575Z,101318.78
2022-10-02T17:51:52.718Z,101324.25
2022-10-02T17:54:41.708Z,101328.28
2022-10-02T17:57:27.582Z,101325.88
2022-10-02T18:00:12.319Z,101321.66
2022-10-02T18:02:53.577Z,101316.41
2022-10-02T18:05:52.621Z,101317.66
2022-10-02T18:08:46.280Z,101313.94
2022-10-02T18:11:57.103Z,101315.88
2022-10-02T18:14:36.234Z,101313.22
2022-10-02T18:17:23.799Z,101316.56
2022-10-02T18:20:28.395Z,101312.25
2022-10-02T18:23:15.337Z,101315.66
2022-10-02T18:25:50.935Z,101320.41
2022-10-02T18:28:30.280Z,101320.28
2022-10-02T18:31:44.263Z,101310.50
2022-10-02T18:34:42.888Z,101310.50
2022-10-02T18:37:25.012Z,101313.56
2022-10-02T18:40:15.727Z,101313.69
2022-10-02T18:43:11.039Z,101314.44
2022-10-02T18:46:16.589Z,101314.72
2022-10-02T18:49:01.746Z,101318.75
2022-10-02T18:51:39.705Z,101323.00
2022-10-02T18:54:32.186Z,101323.50
2022-10-02T18:57:02.229Z,101323.16
2022-10-02T18:59:41.487Z,101324.41
2022-10-02T19:02:55.206Z,101323.81
2022-10-02T19:05:37.206Z,101334.88
2022-10-02T19:08:04.294Z,101334.66
2022-10-02T19:10:31.314Z,101329.94
2022-10-02T19:13:17.780Z,101329.06
2022-10-02T19:15:48.438Z,101333.72
2022-10-02T19:18:17.809Z,101338.19
2022-10-02T19:20:53.215Z,101341.25
2022-10-02T19:23:23.047Z,101340.88
2022-10-02T19:25:52.474Z,101333.25
2022-10-02T19:28:25.372Z,101338.81
2022-10-02T19:30:57.537Z,101335.69
2022-10-02T19:33:51.200Z,101343.97
2022-10-02T19:36:22.743Z,101351.84
2022-10-02T19:38:54.579Z,101354.03
2022-10-02T19:41:23.388Z,101355.25
2022-10-02T19:43:56.556Z,101354.75
2022-10-02T19:46:40.263Z,101356.72
2022-10-02T19:49:14.302Z,101360.63
2022-10-02T19:51:43.862Z,101367.16
2022-10-02T19:54:15.926Z,101373.63
2022-10-02T19:56:45.192Z,101371.31
2022-10-02T19:59:15.022Z,101374.00
2022-10-02T20:01:51.034Z,101368.13
2022-10-02T20:04:24.260Z,101368.38
2022-10-02T20:06:59.767Z,101372.41
2022-10-02T20:09:53.223Z,101379.81
2022-10-02T20:12:26.896Z,101382.59
2022-10-02T20:15:00.728Z,101381.47
2022-10-02T20:17:28.107Z,101384.66
2022-10-02T20:20:01.701Z,101387.41
2022-10-02T20:22:58.794Z,101385.13
2022-10-02T20:25:34.401Z,101393.13
2022-10-02T20:28:22.713Z,101395.31
2022-10-02T20:31:04.866Z,101399.78
2022-10-02T20:33:39.579Z,101398.16
2022-10-02T20:36:14.126Z,101399.59
2022-10-02T20:38:56.458Z,101404.63
2022-10-02T20:41:33.546Z,101402.66
2022-10-02T20:44:04.327Z,101415.41
2022-10-02T20:46:37.270Z,101417.66
2022-10-02T20:49:41.596Z,101411.41
2022-10-02T20:52:27.028Z,101413.44
2022-10-02T20:55:30.205Z,101419.59
2022-10-02T20:58:18.752Z,101422.78
2022-10-02T21:01:20.683Z,101418.66
2022-10-02T21:04:26.448Z,101423.56
2022-10-02T21:07:08.316Z,101425.09
2022-10-02T21:10:08.371Z,101422.44
2022-10-02T21:12:45.271Z,101415.59
2022-10-02T21:15:18.063Z,101418.06
2022-10-02T21:18:06.889Z,101420.84
2022-10-02T21:20:52.085Z,101426.50
2022-10-02T21:23:47.567Z,101429.94
2022-10-02T21:26:51.646Z,101428.09
2022-10-02T21:29:46.250Z,101423.19
2022-10-02T21:32:49.246Z,101428.97
2022-10-02T21:35:44.154Z,101428.44
2022-10-02T21:38:34.280Z,101429.47
2022-10-02T21:41:39.268Z,101428.09
2022-10-02T21:44:29.677Z,101417.63
2022-10-02T21:47:34.300Z,101425.75
2022-10-02T21:50:20.114Z,101426.59
2022-10-02T21:53:07.414Z,101427.88
2022-10-02T21:56:27.142Z,101432.56
2022-10-02T21:59:06.542Z,101428.84
2022-10-02T22:01:36.263Z,101427.03
2022-10-02T22:04:25.779Z,101428.41
2022-10-02T22:06:56.718Z,101418.38
2022-10-02T22:09:42.934Z,101419.47
2022-10-02T22:12:42.597Z,101417.44
2022-10-02T22:15:31.117Z,101417.75
2022-10-02T22:18:06.683Z,101413.25
2022-10-02T22:20:57.995Z,101417.97
2022-10-02T22:23:35.311Z,101420.63
2022-10-02T22:26:18.647Z,101421.47
2022-10-02T22:28:52.266Z,101422.56
2022-10-02T22:31:28.271Z,101415.19
2022-10-02T22:34:13.935Z,101415.31
2022-10-02T22:37:16.583Z,101422.69
2022-10-02T22:39:53.146Z,101429.50
2022-10-02T22:42:26.071Z,101426.63
2022-10-02T22:45:10.837Z,101428.09
2022-10-02T22:47:50.807Z,101427.56
2022-10-02T22:50:32.803Z,101422.22
2022-10-02T22:53:14.866Z,101421.59
2022-10-02T22:55:55.555Z,101425.88
2022-10-02T22:58:39.570Z,101427.16
2022-10-02T23:01:16.300Z,101421.72
2022-10-02T23:03:54.663Z,101423.19
2022-10-02T23:06:21.765Z,101417.97
2022-10-02T23:09:06.415Z,101420.94
2022-10-02T23:11:45.287Z,101427.03
2022-10-02T23:14:29.036Z,101425.97
2022-10-02T23:17:43.839Z,101426.81
2022-10-02T23:20:19.681Z,101430.00
2022-10-02T23:22:56.374Z,101431.28
2022-10-02T23:25:28.208Z,101431.63
2022-10-02T23:28:18.543Z,101433.56
2022-10-02T23:31:01.976Z,101435.44
2022-10-02T23:33:44.510Z,101429.66
2022-10-02T23:36:22.165Z,101431.91
2022-10-02T23:39:10.931Z,101442.78
2022-10-02T23:41:47.528Z,101429.75
2022-10-02T23:44:29.559Z,101428.34
2022-10-02T23:47:05.302Z,101431.03
2022-10-02T23:49:38.967Z,101434.97
2022-10-02T23:52:20.988Z,101430.16
2022-10-02T23:55:06.942Z,101435.03
2022-10-02T23:57:53.626Z,101436.84
